Delfzijl, Netherlands
Current Conditions -  °F | °C
As of 8:25 AM on Thursday 23 Oct 2014 (Local Time) from EHGG Reporting Station
Haze Haze  
Wind Chill: 50°   Ceiling: 3700
Heat Index: 50°   Visibility: 3mi
Dew Point: 48°   Wind: 8mph
Humidity: 94%   Direction: 200°SSW
Pressure: 30.12"   Gusts: NA
Location:  53.33°N, 6.92°E
Report Text: EHGG 230625Z AUTO 20007KT 170V230 5000 BR FEW005 SCT030 BKN03710/09 Q1020 BECMG 9999
Loading
Personal Weather Stations






























Interactive Weather Map
Tropical Storm Tracking
New forecast layout! Learn more

10-Day Weather Forecast

Advertisements
Track Severe Weather on mobile